sensor_id;sensor_type;location;lat;lon;timestamp;P1;durP1;ratioP1;P2;durP2;ratioP2
65691;SDS011;52411;52.716;6.696;2023-07-29T00:01:30;17.48;;;11.43;;
65691;SDS011;52411;52.716;6.696;2023-07-29T00:03:56;19.02;;;10.85;;
65691;SDS011;52411;52.716;6.696;2023-07-29T00:06:21;18.48;;;12.55;;
65691;SDS011;52411;52.716;6.696;2023-07-29T00:08:47;18.33;;;11.85;;
65691;SDS011;52411;52.716;6.696;2023-07-29T00:11:13;18.65;;;11.88;;
65691;SDS011;52411;52.716;6.696;2023-07-29T00:13:39;15.93;;;11.95;;
65691;SDS011;52411;52.716;6.696;2023-07-29T00:16:04;16.10;;;11.77;;
65691;SDS011;52411;52.716;6.696;2023-07-29T00:18:31;17.58;;;12.25;;
65691;SDS011;52411;52.716;6.696;2023-07-29T00:20:57;18.65;;;12.98;;
65691;SDS011;52411;52.716;6.696;2023-07-29T00:23:23;18.92;;;12.52;;
65691;SDS011;52411;52.716;6.696;2023-07-29T00:25:48;18.60;;;12.60;;
65691;SDS011;52411;52.716;6.696;2023-07-29T00:28:14;21.77;;;13.00;;
65691;SDS011;52411;52.716;6.696;2023-07-29T00:30:40;18.00;;;12.23;;
65691;SDS011;52411;52.716;6.696;2023-07-29T00:33:06;17.70;;;12.07;;
65691;SDS011;52411;52.716;6.696;2023-07-29T00:35:31;17.20;;;11.55;;
65691;SDS011;52411;52.716;6.696;2023-07-29T00:37:57;16.67;;;11.77;;
65691;SDS011;52411;52.716;6.696;2023-07-29T00:40:22;19.55;;;12.15;;
65691;SDS011;52411;52.716;6.696;2023-07-29T00:42:49;18.90;;;12.55;;
65691;SDS011;52411;52.716;6.696;2023-07-29T00:45:15;16.23;;;12.13;;
65691;SDS011;52411;52.716;6.696;2023-07-29T00:47:41;19.48;;;11.82;;
65691;SDS011;52411;52.716;6.696;2023-07-29T00:50:07;19.60;;;12.32;;
65691;SDS011;52411;52.716;6.696;2023-07-29T00:52:36;17.73;;;12.00;;
65691;SDS011;52411;52.716;6.696;2023-07-29T00:55:02;17.95;;;11.48;;
65691;SDS011;52411;52.716;6.696;2023-07-29T00:57:29;22.02;;;11.65;;
65691;SDS011;52411;52.716;6.696;2023-07-29T00:59:55;18.00;;;11.38;;
65691;SDS011;52411;52.716;6.696;2023-07-29T01:02:21;19.00;;;11.15;;
65691;SDS011;52411;52.716;6.696;2023-07-29T01:04:53;16.13;;;11.05;;
65691;SDS011;52411;52.716;6.696;2023-07-29T01:10:17;20.33;;;11.48;;
65691;SDS011;52411;52.716;6.696;2023-07-29T01:13:01;17.08;;;11.10;;
65691;SDS011;52411;52.716;6.696;2023-07-29T01:15:36;14.73;;;11.07;;
65691;SDS011;52411;52.716;6.696;2023-07-29T01:18:08;17.45;;;11.55;;
65691;SDS011;52411;52.716;6.696;2023-07-29T01:20:40;16.98;;;11.50;;
65691;SDS011;52411;52.716;6.696;2023-07-29T01:23:08;17.63;;;11.45;;
65691;SDS011;52411;52.716;6.696;2023-07-29T01:25:34;15.45;;;10.50;;
65691;SDS011;52411;52.716;6.696;2023-07-29T01:28:00;17.90;;;10.48;;
65691;SDS011;52411;52.716;6.696;2023-07-29T01:30:28;18.35;;;10.50;;
65691;SDS011;52411;52.716;6.696;2023-07-29T01:35:55;15.30;;;9.98;;
65691;SDS011;52411;52.716;6.696;2023-07-29T01:38:30;18.05;;;11.75;;
65691;SDS011;52411;52.716;6.696;2023-07-29T01:41:03;16.45;;;10.75;;
65691;SDS011;52411;52.716;6.696;2023-07-29T01:45:57;15.27;;;10.13;;
65691;SDS011;52411;52.716;6.696;2023-07-29T01:48:23;14.80;;;10.43;;
65691;SDS011;52411;52.716;6.696;2023-07-29T01:50:49;19.80;;;11.15;;
65691;SDS011;52411;52.716;6.696;2023-07-29T01:53:15;14.10;;;10.75;;
65691;SDS011;52411;52.716;6.696;2023-07-29T01:55:41;17.83;;;11.77;;
65691;SDS011;52411;52.716;6.696;2023-07-29T01:58:07;20.85;;;11.52;;
65691;SDS011;52411;52.716;6.696;2023-07-29T02:00:33;16.90;;;11.20;;
65691;SDS011;52411;52.716;6.696;2023-07-29T02:02:58;17.23;;;11.55;;
65691;SDS011;52411;52.716;6.696;2023-07-29T02:05:24;16.17;;;11.05;;
65691;SDS011;52411;52.716;6.696;2023-07-29T02:07:49;14.82;;;11.13;;
65691;SDS011;52411;52.716;6.696;2023-07-29T02:10:15;16.45;;;10.82;;
65691;SDS011;52411;52.716;6.696;2023-07-29T02:12:41;16.23;;;10.52;;
65691;SDS011;52411;52.716;6.696;2023-07-29T02:15:07;12.82;;;10.23;;
65691;SDS011;52411;52.716;6.696;2023-07-29T02:17:33;13.73;;;10.05;;
65691;SDS011;52411;52.716;6.696;2023-07-29T02:19:58;14.90;;;10.18;;
65691;SDS011;52411;52.716;6.696;2023-07-29T02:22:24;16.52;;;9.60;;
65691;SDS011;52411;52.716;6.696;2023-07-29T02:24:50;13.23;;;8.77;;
65691;SDS011;52411;52.716;6.696;2023-07-29T02:27:15;14.18;;;9.23;;
65691;SDS011;52411;52.716;6.696;2023-07-29T02:29:41;12.98;;;8.90;;
65691;SDS011;52411;52.716;6.696;2023-07-29T02:32:07;12.10;;;8.52;;
65691;SDS011;52411;52.716;6.696;2023-07-29T02:34:32;12.48;;;8.27;;
65691;SDS011;52411;52.716;6.696;2023-07-29T02:36:58;10.23;;;8.15;;
65691;SDS011;52411;52.716;6.696;2023-07-29T02:39:23;13.82;;;8.23;;
65691;SDS011;52411;52.716;6.696;2023-07-29T02:41:49;14.80;;;7.88;;
65691;SDS011;52411;52.716;6.696;2023-07-29T02:44:15;13.20;;;8.20;;
65691;SDS011;52411;52.716;6.696;2023-07-29T02:46:40;10.77;;;8.55;;
65691;SDS011;52411;52.716;6.696;2023-07-29T02:49:06;15.18;;;7.65;;
65691;SDS011;52411;52.716;6.696;2023-07-29T02:51:32;13.02;;;7.45;;
65691;SDS011;52411;52.716;6.696;2023-07-29T02:53:58;12.13;;;7.22;;
65691;SDS011;52411;52.716;6.696;2023-07-29T02:56:23;11.55;;;7.28;;
65691;SDS011;52411;52.716;6.696;2023-07-29T02:58:49;11.25;;;7.47;;
65691;SDS011;52411;52.716;6.696;2023-07-29T03:01:16;8.90;;;6.95;;
65691;SDS011;52411;52.716;6.696;2023-07-29T03:03:42;10.98;;;7.57;;
65691;SDS011;52411;52.716;6.696;2023-07-29T03:06:09;10.80;;;7.38;;
65691;SDS011;52411;52.716;6.696;2023-07-29T03:08:35;10.10;;;6.70;;
65691;SDS011;52411;52.716;6.696;2023-07-29T03:11:08;8.48;;;6.00;;
65691;SDS011;52411;52.716;6.696;2023-07-29T03:13:36;9.07;;;5.80;;
65691;SDS011;52411;52.716;6.696;2023-07-29T03:16:09;11.73;;;5.68;;
65691;SDS011;52411;52.716;6.696;2023-07-29T03:18:36;9.55;;;5.53;;
65691;SDS011;52411;52.716;6.696;2023-07-29T03:21:02;10.48;;;5.80;;
65691;SDS011;52411;52.716;6.696;2023-07-29T03:23:28;9.95;;;5.85;;
65691;SDS011;52411;52.716;6.696;2023-07-29T03:25:58;8.95;;;5.75;;
65691;SDS011;52411;52.716;6.696;2023-07-29T03:28:25;10.35;;;5.43;;
65691;SDS011;52411;52.716;6.696;2023-07-29T03:30:53;9.27;;;6.03;;
65691;SDS011;52411;52.716;6.696;2023-07-29T03:33:19;9.18;;;5.65;;
65691;SDS011;52411;52.716;6.696;2023-07-29T03:35:44;7.53;;;5.03;;
65691;SDS011;52411;52.716;6.696;2023-07-29T03:38:10;8.77;;;5.28;;
65691;SDS011;52411;52.716;6.696;2023-07-29T03:40:37;7.82;;;5.00;;
65691;SDS011;52411;52.716;6.696;2023-07-29T03:43:03;10.80;;;4.70;;
65691;SDS011;52411;52.716;6.696;2023-07-29T03:45:29;6.28;;;4.40;;
65691;SDS011;52411;52.716;6.696;2023-07-29T03:47:54;7.90;;;4.60;;
65691;SDS011;52411;52.716;6.696;2023-07-29T03:50:20;7.72;;;4.72;;
65691;SDS011;52411;52.716;6.696;2023-07-29T03:52:46;5.88;;;4.15;;
65691;SDS011;52411;52.716;6.696;2023-07-29T03:55:12;6.30;;;4.28;;
65691;SDS011;52411;52.716;6.696;2023-07-29T03:57:37;5.30;;;3.92;;
65691;SDS011;52411;52.716;6.696;2023-07-29T04:00:03;8.20;;;4.40;;
65691;SDS011;52411;52.716;6.696;2023-07-29T04:02:29;5.85;;;3.92;;
65691;SDS011;52411;52.716;6.696;2023-07-29T04:04:55;7.75;;;4.57;;
65691;SDS011;52411;52.716;6.696;2023-07-29T04:07:21;8.90;;;4.47;;
65691;SDS011;52411;52.716;6.696;2023-07-29T04:09:46;6.97;;;4.63;;
65691;SDS011;52411;52.716;6.696;2023-07-29T04:12:12;6.75;;;4.20;;
65691;SDS011;52411;52.716;6.696;2023-07-29T04:14:37;6.47;;;4.20;;
65691;SDS011;52411;52.716;6.696;2023-07-29T04:17:03;5.63;;;4.15;;
65691;SDS011;52411;52.716;6.696;2023-07-29T04:19:29;7.60;;;4.30;;
65691;SDS011;52411;52.716;6.696;2023-07-29T04:21:55;5.30;;;3.80;;
65691;SDS011;52411;52.716;6.696;2023-07-29T04:24:20;9.30;;;4.18;;
65691;SDS011;52411;52.716;6.696;2023-07-29T04:26:48;5.40;;;4.00;;
65691;SDS011;52411;52.716;6.696;2023-07-29T04:29:14;7.63;;;4.35;;
65691;SDS011;52411;52.716;6.696;2023-07-29T04:31:40;5.60;;;3.72;;
65691;SDS011;52411;52.716;6.696;2023-07-29T04:34:05;6.00;;;3.85;;
65691;SDS011;52411;52.716;6.696;2023-07-29T04:36:31;7.68;;;3.45;;
65691;SDS011;52411;52.716;6.696;2023-07-29T04:38:58;6.55;;;3.65;;
65691;SDS011;52411;52.716;6.696;2023-07-29T04:41:23;5.75;;;3.65;;
65691;SDS011;52411;52.716;6.696;2023-07-29T04:43:49;9.20;;;3.72;;
65691;SDS011;52411;52.716;6.696;2023-07-29T04:46:15;6.07;;;3.47;;
65691;SDS011;52411;52.716;6.696;2023-07-29T04:48:40;7.55;;;4.13;;
65691;SDS011;52411;52.716;6.696;2023-07-29T04:51:06;7.22;;;4.38;;
65691;SDS011;52411;52.716;6.696;2023-07-29T04:53:32;5.93;;;4.20;;
65691;SDS011;52411;52.716;6.696;2023-07-29T04:55:59;9.13;;;3.90;;
65691;SDS011;52411;52.716;6.696;2023-07-29T04:58:26;6.93;;;3.88;;
65691;SDS011;52411;52.716;6.696;2023-07-29T05:00:53;9.13;;;4.03;;
65691;SDS011;52411;52.716;6.696;2023-07-29T05:03:19;5.63;;;3.45;;
65691;SDS011;52411;52.716;6.696;2023-07-29T05:05:45;6.70;;;4.00;;
65691;SDS011;52411;52.716;6.696;2023-07-29T05:08:10;9.25;;;4.57;;
65691;SDS011;52411;52.716;6.696;2023-07-29T05:10:36;8.38;;;4.20;;
65691;SDS011;52411;52.716;6.696;2023-07-29T05:13:01;7.40;;;4.35;;
65691;SDS011;52411;52.716;6.696;2023-07-29T05:15:27;9.30;;;4.32;;
65691;SDS011;52411;52.716;6.696;2023-07-29T05:17:53;8.52;;;4.82;;
65691;SDS011;52411;52.716;6.696;2023-07-29T05:20:18;7.53;;;4.50;;
65691;SDS011;52411;52.716;6.696;2023-07-29T05:22:44;8.15;;;4.78;;
65691;SDS011;52411;52.716;6.696;2023-07-29T05:25:09;7.32;;;4.75;;
65691;SDS011;52411;52.716;6.696;2023-07-29T05:27:35;7.57;;;4.70;;
65691;SDS011;52411;52.716;6.696;2023-07-29T05:30:01;7.05;;;4.95;;
65691;SDS011;52411;52.716;6.696;2023-07-29T05:32:26;11.18;;;5.93;;
65691;SDS011;52411;52.716;6.696;2023-07-29T05:34:52;14.65;;;6.20;;
65691;SDS011;52411;52.716;6.696;2023-07-29T05:37:18;10.40;;;5.45;;
65691;SDS011;52411;52.716;6.696;2023-07-29T05:39:43;9.30;;;5.30;;
65691;SDS011;52411;52.716;6.696;2023-07-29T05:42:09;9.70;;;5.43;;
65691;SDS011;52411;52.716;6.696;2023-07-29T05:44:34;10.70;;;5.50;;
65691;SDS011;52411;52.716;6.696;2023-07-29T05:47:00;11.48;;;6.30;;
65691;SDS011;52411;52.716;6.696;2023-07-29T05:49:26;11.32;;;5.70;;
65691;SDS011;52411;52.716;6.696;2023-07-29T05:51:51;10.73;;;5.65;;
65691;SDS011;52411;52.716;6.696;2023-07-29T05:54:18;15.60;;;6.03;;
65691;SDS011;52411;52.716;6.696;2023-07-29T05:56:44;10.93;;;5.95;;
65691;SDS011;52411;52.716;6.696;2023-07-29T05:59:09;13.80;;;6.10;;
65691;SDS011;52411;52.716;6.696;2023-07-29T06:01:35;10.43;;;6.63;;
65691;SDS011;52411;52.716;6.696;2023-07-29T06:04:00;10.32;;;6.40;;
65691;SDS011;52411;52.716;6.696;2023-07-29T06:06:26;10.75;;;6.40;;
65691;SDS011;52411;52.716;6.696;2023-07-29T06:08:52;15.57;;;6.40;;
65691;SDS011;52411;52.716;6.696;2023-07-29T06:11:18;10.40;;;6.00;;
65691;SDS011;52411;52.716;6.696;2023-07-29T06:13:43;11.68;;;6.28;;
65691;SDS011;52411;52.716;6.696;2023-07-29T06:16:09;13.07;;;7.20;;
65691;SDS011;52411;52.716;6.696;2023-07-29T06:18:35;12.50;;;6.75;;
65691;SDS011;52411;52.716;6.696;2023-07-29T06:21:00;10.30;;;6.75;;
65691;SDS011;52411;52.716;6.696;2023-07-29T06:23:26;10.73;;;6.68;;
65691;SDS011;52411;52.716;6.696;2023-07-29T06:25:51;11.88;;;6.75;;
65691;SDS011;52411;52.716;6.696;2023-07-29T06:28:17;11.82;;;6.68;;
65691;SDS011;52411;52.716;6.696;2023-07-29T06:30:43;11.82;;;6.95;;
65691;SDS011;52411;52.716;6.696;2023-07-29T06:33:08;12.82;;;7.03;;
65691;SDS011;52411;52.716;6.696;2023-07-29T06:35:34;14.00;;;6.72;;
65691;SDS011;52411;52.716;6.696;2023-07-29T06:38:00;11.52;;;6.75;;
65691;SDS011;52411;52.716;6.696;2023-07-29T06:40:25;13.63;;;6.25;;
65691;SDS011;52411;52.716;6.696;2023-07-29T06:42:51;12.00;;;6.63;;
65691;SDS011;52411;52.716;6.696;2023-07-29T06:45:16;10.85;;;6.22;;
65691;SDS011;52411;52.716;6.696;2023-07-29T06:47:42;10.10;;;6.35;;
65691;SDS011;52411;52.716;6.696;2023-07-29T06:50:08;11.35;;;6.55;;
65691;SDS011;52411;52.716;6.696;2023-07-29T06:52:34;10.60;;;6.10;;
65691;SDS011;52411;52.716;6.696;2023-07-29T06:55:01;11.82;;;5.93;;
65691;SDS011;52411;52.716;6.696;2023-07-29T06:57:27;10.25;;;5.93;;
65691;SDS011;52411;52.716;6.696;2023-07-29T06:59:53;10.43;;;6.15;;
65691;SDS011;52411;52.716;6.696;2023-07-29T07:02:18;10.18;;;5.75;;
65691;SDS011;52411;52.716;6.696;2023-07-29T07:04:44;11.50;;;6.45;;
65691;SDS011;52411;52.716;6.696;2023-07-29T07:07:10;11.77;;;6.00;;
65691;SDS011;52411;52.716;6.696;2023-07-29T07:09:35;10.25;;;6.22;;
65691;SDS011;52411;52.716;6.696;2023-07-29T07:12:01;13.52;;;6.28;;
65691;SDS011;52411;52.716;6.696;2023-07-29T07:14:27;8.80;;;6.07;;
65691;SDS011;52411;52.716;6.696;2023-07-29T07:16:52;9.45;;;6.15;;
65691;SDS011;52411;52.716;6.696;2023-07-29T07:19:18;12.70;;;6.10;;
65691;SDS011;52411;52.716;6.696;2023-07-29T07:21:46;12.15;;;6.38;;
65691;SDS011;52411;52.716;6.696;2023-07-29T07:24:12;9.27;;;6.35;;
65691;SDS011;52411;52.716;6.696;2023-07-29T07:26:41;9.88;;;6.25;;
65691;SDS011;52411;52.716;6.696;2023-07-29T07:29:06;13.15;;;6.95;;
65691;SDS011;52411;52.716;6.696;2023-07-29T07:31:35;12.63;;;6.22;;
65691;SDS011;52411;52.716;6.696;2023-07-29T07:34:00;10.65;;;6.80;;
65691;SDS011;52411;52.716;6.696;2023-07-29T07:36:27;10.43;;;6.03;;
65691;SDS011;52411;52.716;6.696;2023-07-29T07:38:53;9.90;;;6.50;;
65691;SDS011;52411;52.716;6.696;2023-07-29T07:41:19;9.65;;;5.72;;
65691;SDS011;52411;52.716;6.696;2023-07-29T07:43:45;11.00;;;5.88;;
65691;SDS011;52411;52.716;6.696;2023-07-29T07:46:10;11.98;;;6.18;;
65691;SDS011;52411;52.716;6.696;2023-07-29T07:48:36;11.68;;;6.43;;
65691;SDS011;52411;52.716;6.696;2023-07-29T07:51:09;11.18;;;6.05;;
65691;SDS011;52411;52.716;6.696;2023-07-29T07:53:38;8.60;;;5.63;;
65691;SDS011;52411;52.716;6.696;2023-07-29T07:56:05;12.95;;;5.82;;
65691;SDS011;52411;52.716;6.696;2023-07-29T07:58:31;11.25;;;6.13;;
65691;SDS011;52411;52.716;6.696;2023-07-29T08:01:01;9.20;;;5.88;;
65691;SDS011;52411;52.716;6.696;2023-07-29T08:03:27;10.13;;;6.07;;
65691;SDS011;52411;52.716;6.696;2023-07-29T08:05:53;7.18;;;5.80;;
65691;SDS011;52411;52.716;6.696;2023-07-29T08:08:18;9.77;;;5.50;;
65691;SDS011;52411;52.716;6.696;2023-07-29T08:10:44;8.05;;;5.85;;
65691;SDS011;52411;52.716;6.696;2023-07-29T08:13:09;10.30;;;5.80;;
65691;SDS011;52411;52.716;6.696;2023-07-29T08:15:35;8.60;;;6.00;;
65691;SDS011;52411;52.716;6.696;2023-07-29T08:18:01;7.70;;;5.43;;
65691;SDS011;52411;52.716;6.696;2023-07-29T08:20:26;9.25;;;5.70;;
65691;SDS011;52411;52.716;6.696;2023-07-29T08:22:52;7.10;;;5.20;;
65691;SDS011;52411;52.716;6.696;2023-07-29T08:25:17;7.05;;;4.63;;
65691;SDS011;52411;52.716;6.696;2023-07-29T08:27:43;8.13;;;4.63;;
65691;SDS011;52411;52.716;6.696;2023-07-29T08:30:09;7.25;;;4.47;;
65691;SDS011;52411;52.716;6.696;2023-07-29T08:32:34;6.82;;;4.28;;
65691;SDS011;52411;52.716;6.696;2023-07-29T08:35:00;7.03;;;4.47;;
65691;SDS011;52411;52.716;6.696;2023-07-29T08:37:26;7.35;;;4.10;;
65691;SDS011;52411;52.716;6.696;2023-07-29T08:39:52;6.78;;;4.18;;
65691;SDS011;52411;52.716;6.696;2023-07-29T08:42:19;7.05;;;4.55;;
65691;SDS011;52411;52.716;6.696;2023-07-29T08:44:45;9.98;;;4.18;;
65691;SDS011;52411;52.716;6.696;2023-07-29T08:47:14;6.63;;;3.92;;
65691;SDS011;52411;52.716;6.696;2023-07-29T08:49:40;7.97;;;3.90;;
65691;SDS011;52411;52.716;6.696;2023-07-29T08:52:07;5.50;;;3.85;;
65691;SDS011;52411;52.716;6.696;2023-07-29T08:54:34;8.48;;;3.83;;
65691;SDS011;52411;52.716;6.696;2023-07-29T08:57:00;6.13;;;3.63;;
65691;SDS011;52411;52.716;6.696;2023-07-29T08:59:26;7.50;;;3.60;;
65691;SDS011;52411;52.716;6.696;2023-07-29T09:01:54;6.53;;;3.47;;
65691;SDS011;52411;52.716;6.696;2023-07-29T09:04:22;6.63;;;3.47;;
65691;SDS011;52411;52.716;6.696;2023-07-29T09:06:50;7.45;;;3.60;;
65691;SDS011;52411;52.716;6.696;2023-07-29T09:09:16;5.93;;;3.17;;
65691;SDS011;52411;52.716;6.696;2023-07-29T09:11:43;4.35;;;3.35;;
65691;SDS011;52411;52.716;6.696;2023-07-29T09:14:09;3.78;;;2.95;;
65691;SDS011;52411;52.716;6.696;2023-07-29T09:16:35;5.50;;;2.90;;
65691;SDS011;52411;52.716;6.696;2023-07-29T09:19:02;4.53;;;2.85;;
65691;SDS011;52411;52.716;6.696;2023-07-29T09:21:31;4.93;;;3.10;;
65691;SDS011;52411;52.716;6.696;2023-07-29T09:23:57;5.68;;;2.78;;
65691;SDS011;52411;52.716;6.696;2023-07-29T09:26:28;4.20;;;2.85;;
65691;SDS011;52411;52.716;6.696;2023-07-29T09:28:54;5.63;;;2.88;;
65691;SDS011;52411;52.716;6.696;2023-07-29T09:31:21;5.30;;;2.80;;
65691;SDS011;52411;52.716;6.696;2023-07-29T09:33:48;5.93;;;2.60;;
65691;SDS011;52411;52.716;6.696;2023-07-29T09:36:14;6.28;;;2.72;;
65691;SDS011;52411;52.716;6.696;2023-07-29T09:38:40;4.85;;;2.80;;
65691;SDS011;52411;52.716;6.696;2023-07-29T09:41:06;4.53;;;2.45;;
65691;SDS011;52411;52.716;6.696;2023-07-29T09:43:32;4.28;;;2.47;;
65691;SDS011;52411;52.716;6.696;2023-07-29T09:46:00;5.38;;;2.53;;
65691;SDS011;52411;52.716;6.696;2023-07-29T09:48:26;5.70;;;2.50;;
65691;SDS011;52411;52.716;6.696;2023-07-29T09:50:54;5.82;;;2.80;;
65691;SDS011;52411;52.716;6.696;2023-07-29T09:53:20;4.32;;;2.80;;
65691;SDS011;52411;52.716;6.696;2023-07-29T09:55:47;6.07;;;2.97;;
65691;SDS011;52411;52.716;6.696;2023-07-29T09:58:19;6.10;;;3.10;;
65691;SDS011;52411;52.716;6.696;2023-07-29T10:00:52;4.75;;;2.95;;
65691;SDS011;52411;52.716;6.696;2023-07-29T10:03:21;5.78;;;2.85;;
65691;SDS011;52411;52.716;6.696;2023-07-29T10:05:47;4.60;;;3.22;;
65691;SDS011;52411;52.716;6.696;2023-07-29T10:08:13;4.38;;;2.90;;
65691;SDS011;52411;52.716;6.696;2023-07-29T10:10:41;5.28;;;3.20;;
65691;SDS011;52411;52.716;6.696;2023-07-29T10:13:07;5.43;;;2.80;;
65691;SDS011;52411;52.716;6.696;2023-07-29T10:15:35;4.88;;;2.78;;
65691;SDS011;52411;52.716;6.696;2023-07-29T10:18:01;6.03;;;3.20;;
65691;SDS011;52411;52.716;6.696;2023-07-29T10:20:28;5.50;;;4.00;;
65691;SDS011;52411;52.716;6.696;2023-07-29T10:22:55;5.15;;;3.80;;
65691;SDS011;52411;52.716;6.696;2023-07-29T10:25:25;5.47;;;3.95;;
65691;SDS011;52411;52.716;6.696;2023-07-29T10:28:05;8.13;;;5.00;;
65691;SDS011;52411;52.716;6.696;2023-07-29T10:30:33;7.57;;;4.90;;
65691;SDS011;52411;52.716;6.696;2023-07-29T10:32:59;4.57;;;3.90;;
65691;SDS011;52411;52.716;6.696;2023-07-29T10:35:29;5.75;;;5.15;;
65691;SDS011;52411;52.716;6.696;2023-07-29T10:37:55;6.28;;;5.05;;
65691;SDS011;52411;52.716;6.696;2023-07-29T10:40:21;6.20;;;4.93;;
65691;SDS011;52411;52.716;6.696;2023-07-29T10:45:51;6.95;;;6.22;;
65691;SDS011;52411;52.716;6.696;2023-07-29T10:48:51;7.82;;;6.05;;
65691;SDS011;52411;52.716;6.696;2023-07-29T10:54:02;6.85;;;6.07;;
65691;SDS011;52411;52.716;6.696;2023-07-29T10:56:28;8.65;;;6.30;;
65691;SDS011;52411;52.716;6.696;2023-07-29T10:58:59;8.32;;;6.43;;
65691;SDS011;52411;52.716;6.696;2023-07-29T11:01:52;12.63;;;7.20;;
65691;SDS011;52411;52.716;6.696;2023-07-29T11:14:57;7.43;;;5.70;;
65691;SDS011;52411;52.716;6.696;2023-07-29T11:17:26;6.80;;;5.63;;
65691;SDS011;52411;52.716;6.696;2023-07-29T11:19:52;7.10;;;5.00;;
65691;SDS011;52411;52.716;6.696;2023-07-29T11:22:21;7.90;;;5.38;;
65691;SDS011;52411;52.716;6.696;2023-07-29T11:24:47;7.40;;;5.00;;
65691;SDS011;52411;52.716;6.696;2023-07-29T11:27:12;11.40;;;6.63;;
65691;SDS011;52411;52.716;6.696;2023-07-29T11:29:38;7.65;;;5.00;;
65691;SDS011;52411;52.716;6.696;2023-07-29T11:32:03;9.55;;;5.00;;
65691;SDS011;52411;52.716;6.696;2023-07-29T11:34:32;6.60;;;4.80;;
65691;SDS011;52411;52.716;6.696;2023-07-29T11:36:58;8.82;;;5.20;;
65691;SDS011;52411;52.716;6.696;2023-07-29T11:39:23;5.25;;;4.40;;
65691;SDS011;52411;52.716;6.696;2023-07-29T11:41:49;8.82;;;5.07;;
65691;SDS011;52411;52.716;6.696;2023-07-29T11:44:18;7.10;;;5.25;;
65691;SDS011;52411;52.716;6.696;2023-07-29T11:46:44;6.85;;;4.30;;
65691;SDS011;52411;52.716;6.696;2023-07-29T11:49:09;7.50;;;3.80;;
65691;SDS011;52411;52.716;6.696;2023-07-29T11:51:38;5.70;;;3.67;;
65691;SDS011;52411;52.716;6.696;2023-07-29T11:54:06;6.85;;;3.30;;
65691;SDS011;52411;52.716;6.696;2023-07-29T11:56:32;6.03;;;3.10;;
65691;SDS011;52411;52.716;6.696;2023-07-29T11:58:57;5.97;;;2.83;;
65691;SDS011;52411;52.716;6.696;2023-07-29T12:01:23;5.68;;;3.25;;
65691;SDS011;52411;52.716;6.696;2023-07-29T12:03:49;5.25;;;3.40;;
65691;SDS011;52411;52.716;6.696;2023-07-29T12:06:16;5.57;;;3.10;;
65691;SDS011;52411;52.716;6.696;2023-07-29T12:08:42;5.80;;;3.33;;
65691;SDS011;52411;52.716;6.696;2023-07-29T12:11:08;6.18;;;3.20;;
65691;SDS011;52411;52.716;6.696;2023-07-29T12:13:36;5.68;;;3.08;;
65691;SDS011;52411;52.716;6.696;2023-07-29T12:16:02;5.78;;;2.72;;
65691;SDS011;52411;52.716;6.696;2023-07-29T12:18:31;7.05;;;3.30;;
65691;SDS011;52411;52.716;6.696;2023-07-29T12:20:58;6.57;;;2.95;;
65691;SDS011;52411;52.716;6.696;2023-07-29T12:23:24;4.95;;;2.92;;
65691;SDS011;52411;52.716;6.696;2023-07-29T12:25:57;5.00;;;3.35;;
65691;SDS011;52411;52.716;6.696;2023-07-29T12:28:23;4.22;;;3.17;;
65691;SDS011;52411;52.716;6.696;2023-07-29T12:30:58;3.75;;;2.72;;
65691;SDS011;52411;52.716;6.696;2023-07-29T12:33:34;4.68;;;2.78;;
65691;SDS011;52411;52.716;6.696;2023-07-29T12:36:01;5.22;;;3.00;;
65691;SDS011;52411;52.716;6.696;2023-07-29T12:38:27;6.18;;;2.83;;
65691;SDS011;52411;52.716;6.696;2023-07-29T12:40:53;4.30;;;2.80;;
65691;SDS011;52411;52.716;6.696;2023-07-29T12:43:19;5.00;;;3.17;;
65691;SDS011;52411;52.716;6.696;2023-07-29T12:45:45;5.65;;;2.80;;
65691;SDS011;52411;52.716;6.696;2023-07-29T12:48:11;5.57;;;2.97;;
65691;SDS011;52411;52.716;6.696;2023-07-29T12:50:37;3.92;;;2.85;;
65691;SDS011;52411;52.716;6.696;2023-07-29T12:53:04;7.90;;;3.33;;
65691;SDS011;52411;52.716;6.696;2023-07-29T12:55:32;5.65;;;3.00;;
65691;SDS011;52411;52.716;6.696;2023-07-29T12:57:58;6.20;;;2.70;;
65691;SDS011;52411;52.716;6.696;2023-07-29T13:00:24;4.75;;;3.03;;
65691;SDS011;52411;52.716;6.696;2023-07-29T13:02:50;5.05;;;2.60;;
65691;SDS011;52411;52.716;6.696;2023-07-29T13:05:16;5.25;;;2.67;;
65691;SDS011;52411;52.716;6.696;2023-07-29T13:07:42;5.45;;;3.05;;
65691;SDS011;52411;52.716;6.696;2023-07-29T13:10:08;5.72;;;3.38;;
65691;SDS011;52411;52.716;6.696;2023-07-29T13:12:35;5.55;;;3.00;;
65691;SDS011;52411;52.716;6.696;2023-07-29T13:15:00;4.07;;;2.70;;
65691;SDS011;52411;52.716;6.696;2023-07-29T13:17:26;4.90;;;2.90;;
65691;SDS011;52411;52.716;6.696;2023-07-29T13:19:52;6.78;;;3.45;;
65691;SDS011;52411;52.716;6.696;2023-07-29T13:22:19;7.50;;;4.78;;
65691;SDS011;52411;52.716;6.696;2023-07-29T13:24:45;7.80;;;4.18;;
65691;SDS011;52411;52.716;6.696;2023-07-29T13:27:11;5.55;;;3.40;;
65691;SDS011;52411;52.716;6.696;2023-07-29T13:29:36;7.53;;;3.25;;
65691;SDS011;52411;52.716;6.696;2023-07-29T13:32:02;5.13;;;2.42;;
65691;SDS011;52411;52.716;6.696;2023-07-29T13:34:28;3.53;;;2.83;;
65691;SDS011;52411;52.716;6.696;2023-07-29T13:36:53;4.80;;;2.55;;
65691;SDS011;52411;52.716;6.696;2023-07-29T13:39:19;6.07;;;2.92;;
65691;SDS011;52411;52.716;6.696;2023-07-29T13:41:45;4.63;;;2.40;;
65691;SDS011;52411;52.716;6.696;2023-07-29T13:44:10;3.92;;;2.60;;
65691;SDS011;52411;52.716;6.696;2023-07-29T13:46:36;4.38;;;2.35;;
65691;SDS011;52411;52.716;6.696;2023-07-29T13:49:01;3.15;;;2.25;;
65691;SDS011;52411;52.716;6.696;2023-07-29T13:51:28;4.80;;;2.60;;
65691;SDS011;52411;52.716;6.696;2023-07-29T13:53:53;4.07;;;2.30;;
65691;SDS011;52411;52.716;6.696;2023-07-29T13:56:21;4.65;;;2.58;;
65691;SDS011;52411;52.716;6.696;2023-07-29T13:58:47;4.10;;;2.67;;
65691;SDS011;52411;52.716;6.696;2023-07-29T14:01:12;3.33;;;2.95;;
65691;SDS011;52411;52.716;6.696;2023-07-29T14:03:38;3.65;;;2.55;;
65691;SDS011;52411;52.716;6.696;2023-07-29T14:06:04;3.78;;;2.80;;
65691;SDS011;52411;52.716;6.696;2023-07-29T14:08:29;3.35;;;2.90;;
65691;SDS011;52411;52.716;6.696;2023-07-29T14:10:55;3.92;;;3.13;;
65691;SDS011;52411;52.716;6.696;2023-07-29T14:13:21;5.55;;;2.10;;
65691;SDS011;52411;52.716;6.696;2023-07-29T14:15:46;5.65;;;1.80;;
65691;SDS011;52411;52.716;6.696;2023-07-29T14:18:12;5.05;;;2.00;;
65691;SDS011;52411;52.716;6.696;2023-07-29T14:20:38;4.55;;;2.38;;
65691;SDS011;52411;52.716;6.696;2023-07-29T14:23:04;3.88;;;2.15;;
65691;SDS011;52411;52.716;6.696;2023-07-29T14:25:29;2.78;;;1.92;;
65691;SDS011;52411;52.716;6.696;2023-07-29T14:27:55;5.80;;;2.03;;
65691;SDS011;52411;52.716;6.696;2023-07-29T14:30:20;4.80;;;2.20;;
65691;SDS011;52411;52.716;6.696;2023-07-29T14:32:46;3.47;;;2.20;;
65691;SDS011;52411;52.716;6.696;2023-07-29T14:35:12;4.55;;;2.70;;
65691;SDS011;52411;52.716;6.696;2023-07-29T14:37:37;5.43;;;2.83;;
65691;SDS011;52411;52.716;6.696;2023-07-29T14:40:04;3.97;;;2.58;;
65691;SDS011;52411;52.716;6.696;2023-07-29T14:42:30;4.68;;;2.78;;
65691;SDS011;52411;52.716;6.696;2023-07-29T14:44:56;5.65;;;3.00;;
65691;SDS011;52411;52.716;6.696;2023-07-29T14:47:21;4.97;;;3.10;;
65691;SDS011;52411;52.716;6.696;2023-07-29T14:49:47;6.90;;;3.30;;
65691;SDS011;52411;52.716;6.696;2023-07-29T14:52:12;6.78;;;3.83;;
65691;SDS011;52411;52.716;6.696;2023-07-29T14:54:38;4.78;;;4.00;;
65691;SDS011;52411;52.716;6.696;2023-07-29T14:57:05;5.72;;;4.25;;
65691;SDS011;52411;52.716;6.696;2023-07-29T14:59:32;7.25;;;4.40;;
65691;SDS011;52411;52.716;6.696;2023-07-29T15:01:58;8.93;;;5.05;;